To NAV CANADA Home Page Login to a new session Search on AWWS site Feedback and Comments Disclaimer Vers la page française équivalente Tips FAQ What's new on the site To the Forecasts and Observations / NOTAM section To "File a Flight Plan" website Publications and other links Update of the User's profile FIC Telephone Numbers My Weather Data Folder Route Weather Data Regional Weather Data Local Weather Data To the Forecasts and Observations / NOTAM section
Request Generated 05/06/2015 at 21:32:25 UTC . Weather information available at that time is displayed.

METAR/TAF

MAYO/YT    

METAR CYMA 062100Z 09007KT 20SM FEW025 BKN040CB 06/03 A3006 RMK
CF1CB6 SLP205=
SPECI CYMA 062018Z 09011KT 20SM BKN035CB 06/03 A3006 RMK CB7 SH DST E
SLP202=
METAR CYMA 062000Z 10004KT 020V110 20SM -SHRA BKN035CB 07/02 A3006
RMK CB7 SLP202=
SPECI CYMA 061936Z 04004KT 020V090 20SM -SHRA FEW015 BKN030CB 06/03
A3006 RMK SC2CB5 SLP203=
SPECI CYMA 061922Z VRB04G15KT 20SM SCT015 BKN030CB 06/03 A3005 RMK
SC3CB4 SLP202=
SPECI CYMA 061917Z VRB04G15KT 20SM -SHGS FEW015 BKN030CB 06/03 A3005
RMK SC2CB5 SLP202=
METAR CYMA 061900Z VRB08KT 20SM -SHRA SCT015 BKN030TCU OVC080 07/03
A3005 RMK SC3TCU3AC2 SLP200=

TAF CYMA 061738Z 0618/0706 VRB03KT P6SM SCT020 BKN040 TEMPO 0618/0620
P6SM -RA
FM062000 VRB03KT P6SM SCT060 TEMPO 0620/0703 BKN040
RMK NXT FCST BY 070000Z=
Your time UTC time
Weather data provided by Environment Canada and NAV CANADA